Time;durP1;ratioP1;P1;durP2;ratioP2;P2;SDS_P1;SDS_P2;PMS_P1;PMS_P2;Temp;Humidity;BMP_temperature;BMP_pressure;BME280_temperature;BME280_humidity;BME280_pressure;Samples;Min_cycle;Max_cycle;Signal;HPM_P1;HPM_P2
2023/06/11 00:00:11;;;;;;;3.50;2.55;;;28.20;42.00;;;;;;5074574;28;20440;-77
2023/06/11 00:02:41;;;;;;;3.65;2.80;;;28.20;42.10;;;;;;5092675;28;20028;-77
2023/06/11 00:05:09;;;;;;;4.22;3.25;;;28.20;42.10;;;;;;5075593;28;20032;-77
2023/06/11 00:07:38;;;;;;;3.70;2.80;;;28.10;42.10;;;;;;5095415;28;20044;-76
2023/06/11 00:10:05;;;;;;;3.63;2.85;;;28.10;42.20;;;;;;5078615;28;20116;-77
2023/06/11 00:12:32;;;;;;;3.83;3.10;;;28.00;42.20;;;;;;5077802;28;20039;-77
2023/06/11 00:15:02;;;;;;;3.58;2.88;;;28.00;42.20;;;;;;5096121;28;20039;-76
2023/06/11 00:17:28;;;;;;;3.88;2.70;;;28.00;42.20;;;;;;5078368;28;20111;-77
2023/06/11 00:19:54;;;;;;;3.72;2.92;;;28.00;42.30;;;;;;5078191;28;20034;-76
2023/06/11 00:22:20;;;;;;;4.00;2.92;;;27.90;42.20;;;;;;5077850;28;20051;-77
2023/06/11 00:24:46;;;;;;;3.92;2.83;;;27.90;43.00;;;;;;5061070;28;20368;-78
2023/06/11 00:27:12;;;;;;;4.20;3.03;;;27.90;42.40;;;;;;5094490;28;20034;-78
2023/06/11 00:29:37;;;;;;;3.38;2.80;;;27.90;42.50;;;;;;5095969;28;20101;-77
2023/06/11 00:32:03;;;;;;;4.03;3.17;;;27.80;42.50;;;;;;5077948;28;20066;-77
2023/06/11 00:34:29;;;;;;;4.85;3.08;;;27.80;42.50;;;;;;5077914;28;20142;-78
2023/06/11 00:36:55;;;;;;;3.88;2.80;;;27.80;42.60;;;;;;5061181;28;20472;-78
2023/06/11 00:39:21;;;;;;;3.65;2.88;;;27.70;42.50;;;;;;5077880;28;20028;-77
2023/06/11 00:41:48;;;;;;;4.00;3.13;;;27.70;42.60;;;;;;5077501;28;20048;-76
2023/06/11 00:44:18;;;;;;;3.70;3.10;;;27.70;42.70;;;;;;5077592;28;20071;-77
2023/06/11 00:46:45;;;;;;;4.15;3.00;;;27.70;42.70;;;;;;5094255;28;20123;-80
2023/06/11 00:49:11;;;;;;;3.90;3.05;;;27.60;42.70;;;;;;5094282;28;20024;-78
2023/06/11 00:51:42;;;;;;;4.35;3.03;;;27.60;42.70;;;;;;5077743;28;20050;-77
2023/06/11 00:54:12;;;;;;;4.80;3.38;;;27.60;42.80;;;;;;5094572;28;20080;-78
2023/06/11 00:56:43;;;;;;;4.32;2.80;;;27.60;42.90;;;;;;5077558;28;20122;-77
2023/06/11 00:59:10;;;;;;;4.22;3.20;;;27.50;42.80;;;;;;5095326;28;20034;-77
2023/06/11 01:01:51;;;;;;;3.88;3.20;;;27.50;42.90;;;;;;5094843;28;20097;-77
2023/06/11 01:04:17;;;;;;;3.83;3.08;;;27.50;43.00;;;;;;5094185;28;20024;-80
2023/06/11 01:06:49;;;;;;;3.65;2.95;;;27.40;42.90;;;;;;5094065;28;20081;-78
2023/06/11 01:09:22;;;;;;;3.13;2.78;;;27.40;43.00;;;;;;5093780;28;20050;-77
2023/06/11 01:11:49;;;;;;;3.40;2.90;;;27.40;43.00;;;;;;5094466;28;20346;-78
2023/06/11 01:14:19;;;;;;;4.00;3.10;;;27.30;43.10;;;;;;5094371;28;20111;-78
2023/06/11 01:16:52;;;;;;;3.30;2.95;;;27.30;43.10;;;;;;5076863;28;20035;-79
2023/06/11 01:19:28;;;;;;;4.53;3.33;;;27.30;43.20;;;;;;5077527;28;20016;-79
2023/06/11 01:22:00;;;;;;;3.05;2.58;;;27.30;43.20;;;;;;5094155;28;20396;-79
2023/06/11 01:24:53;;;;;;;4.15;3.20;;;27.30;43.30;;;;;;5093788;28;20050;-78
2023/06/11 01:27:34;;;;;;;4.28;3.15;;;27.20;43.30;;;;;;5093691;28;20448;-78
2023/06/11 01:30:03;;;;;;;4.15;3.00;;;27.30;43.40;;;;;;5076985;28;20031;-79
2023/06/11 01:32:30;;;;;;;3.95;3.10;;;27.20;43.40;;;;;;5093771;28;20035;-77
2023/06/11 01:35:02;;;;;;;4.20;2.90;;;27.20;43.40;;;;;;5078009;28;20032;-77
2023/06/11 01:37:36;;;;;;;3.80;3.00;;;27.20;43.50;;;;;;5093400;28;20027;-77
2023/06/11 01:40:02;;;;;;;4.57;3.35;;;27.10;43.50;;;;;;5076615;28;20427;-78
2023/06/11 01:42:40;;;;;;;6.00;3.22;;;27.10;43.50;;;;;;5078300;28;20116;-77
2023/06/11 01:45:07;;;;;;;4.63;3.15;;;27.00;43.40;;;;;;5076899;28;20416;-78
2023/06/11 01:47:33;;;;;;;4.50;3.10;;;27.00;43.50;;;;;;5043951;28;20123;-77
2023/06/11 01:50:00;;;;;;;4.43;3.10;;;27.00;43.60;;;;;;5059873;28;20452;-77
2023/06/11 01:52:27;;;;;;;4.03;3.00;;;27.00;43.60;;;;;;5092638;28;20034;-79
2023/06/11 01:54:52;;;;;;;4.35;3.28;;;27.00;43.70;;;;;;5094217;28;20107;-79
2023/06/11 01:57:18;;;;;;;3.95;3.13;;;26.90;43.60;;;;;;5092749;28;20036;-79
2023/06/11 01:59:44;;;;;;;4.43;3.30;;;26.80;43.60;;;;;;5092906;28;20073;-78
2023/06/11 02:02:10;;;;;;;3.95;3.05;;;26.90;43.70;;;;;;5092764;28;20392;-78
2023/06/11 02:04:35;;;;;;;4.20;3.22;;;26.90;43.70;;;;;;5092481;28;20512;-76
2023/06/11 02:07:01;;;;;;;4.30;3.15;;;26.80;43.70;;;;;;5092847;28;20039;-79
2023/06/11 02:09:27;;;;;;;4.68;3.50;;;26.80;43.80;;;;;;5042970;28;20036;-78
2023/06/11 02:11:53;;;;;;;6.35;3.25;;;26.80;43.80;;;;;;5059826;28;20047;-77
2023/06/11 02:14:20;;;;;;;4.53;3.60;;;26.70;43.80;;;;;;5076013;28;20032;-81
2023/06/11 02:16:45;;;;;;;4.30;3.20;;;26.70;43.90;;;;;;5077567;28;20035;-77
2023/06/11 02:19:12;;;;;;;3.95;3.17;;;26.60;43.90;;;;;;5095333;28;20028;-78
2023/06/11 02:21:38;;;;;;;4.15;3.05;;;26.60;43.90;;;;;;5092816;28;20123;-77
2023/06/11 02:24:04;;;;;;;4.43;3.30;;;26.60;44.00;;;;;;5059640;28;20484;-78
2023/06/11 02:26:30;;;;;;;3.70;3.03;;;26.60;44.00;;;;;;5075920;28;20032;-77
2023/06/11 02:28:56;;;;;;;4.22;3.40;;;26.50;44.00;;;;;;5075005;28;20059;-79
2023/06/11 02:31:21;;;;;;;4.22;3.30;;;26.50;44.00;;;;;;5075833;28;20083;-78
2023/06/11 02:33:47;;;;;;;4.28;3.10;;;26.50;44.00;;;;;;5093448;28;20028;-80
2023/06/11 02:36:13;;;;;;;4.45;3.30;;;26.50;44.10;;;;;;5095494;28;20043;-79
2023/06/11 02:38:39;;;;;;;4.90;3.42;;;26.40;44.10;;;;;;5076565;28;20438;-77
2023/06/11 02:41:04;;;;;;;4.07;3.22;;;26.40;44.20;;;;;;5092307;28;20036;-77
2023/06/11 02:43:30;;;;;;;4.30;3.45;;;26.40;44.20;;;;;;5093480;28;20056;-78
2023/06/11 02:45:56;;;;;;;4.43;3.35;;;26.40;44.20;;;;;;5058891;28;20063;-78
2023/06/11 02:48:22;;;;;;;4.20;3.35;;;26.30;44.20;;;;;;5092723;28;20024;-78
2023/06/11 02:50:47;;;;;;;3.90;3.03;;;26.30;44.20;;;;;;5093700;28;20044;-78
2023/06/11 02:53:13;;;;;;;4.30;3.40;;;26.30;44.30;;;;;;5094156;28;20346;-77
2023/06/11 02:55:39;;;;;;;4.45;3.50;;;26.30;44.30;;;;;;5095490;28;20039;-77
2023/06/11 02:58:05;;;;;;;4.53;3.50;;;26.20;44.30;;;;;;5094974;28;20028;-78
2023/06/11 03:00:30;;;;;;;3.75;2.90;;;26.20;44.30;;;;;;5043063;28;20369;-77
2023/06/11 03:02:56;;;;;;;4.80;3.60;;;26.20;44.40;;;;;;5075384;28;20039;-78
2023/06/11 03:05:27;;;;;;;4.15;3.35;;;26.10;44.40;;;;;;5060233;28;20028;-78
2023/06/11 03:07:53;;;;;;;4.22;3.45;;;26.10;44.40;;;;;;5092122;28;20039;-78
2023/06/11 03:10:19;;;;;;;4.07;3.30;;;26.10;44.40;;;;;;5075848;28;20064;-77
2023/06/11 03:12:45;;;;;;;4.20;3.38;;;26.10;44.50;;;;;;5075687;28;20077;-77
2023/06/11 03:15:11;;;;;;;5.10;3.45;;;26.00;44.50;;;;;;5091904;28;20040;-77
2023/06/11 03:17:36;;;;;;;5.00;3.70;;;26.00;44.50;;;;;;5058541;28;20609;-76
2023/06/11 03:20:02;;;;;;;4.13;3.25;;;26.00;44.60;;;;;;5059062;28;20039;-77
2023/06/11 03:22:28;;;;;;;4.13;3.38;;;26.00;44.60;;;;;;5059070;28;20036;-76
2023/06/11 03:24:54;;;;;;;4.43;3.50;;;25.90;44.60;;;;;;5091729;28;20418;-79
2023/06/11 03:27:33;;;;;;;4.60;3.30;;;25.90;44.60;;;;;;5061648;28;20051;-78
2023/06/11 03:29:58;;;;;;;3.83;3.03;;;25.90;44.70;;;;;;5074694;28;20032;-78
2023/06/11 03:32:24;;;;;;;4.10;3.15;;;25.90;44.70;;;;;;5074855;28;20542;-77
2023/06/11 03:34:51;;;;;;;4.10;3.15;;;25.80;44.70;;;;;;5075197;28;20039;-77
2023/06/11 03:37:18;;;;;;;6.13;3.05;;;25.80;44.80;;;;;;5058506;28;20115;-78
2023/06/11 03:39:44;;;;;;;4.05;3.35;;;25.80;44.80;;;;;;5074985;28;20089;-77
2023/06/11 03:42:10;;;;;;;3.63;3.10;;;25.80;44.90;;;;;;5078521;28;20052;-78
2023/06/11 03:44:37;;;;;;;4.40;3.58;;;25.70;44.80;;;;;;5061927;28;20442;-78
2023/06/11 03:47:04;;;;;;;5.15;3.55;;;25.70;44.90;;;;;;5078615;28;20036;-78
2023/06/11 03:49:29;;;;;;;5.25;3.22;;;25.70;44.90;;;;;;5096065;28;20086;-78
2023/06/11 03:51:55;;;;;;;3.78;2.95;;;25.60;44.90;;;;;;5095265;28;20036;-79
2023/06/11 03:54:22;;;;;;;3.97;3.13;;;25.60;44.90;;;;;;5078416;28;20484;-77
2023/06/11 03:56:49;;;;;;;3.67;2.80;;;25.60;45.00;;;;;;5095406;28;20353;-78
2023/06/11 03:59:15;;;;;;;4.38;3.20;;;25.60;45.00;;;;;;5078204;28;20035;-77
2023/06/11 04:01:41;;;;;;;3.65;3.10;;;25.50;45.00;;;;;;5078461;28;20040;-78
2023/06/11 04:04:07;;;;;;;4.15;3.25;;;25.50;45.00;;;;;;5078214;28;20052;-78
2023/06/11 04:06:42;;;;;;;4.47;3.05;;;25.50;45.00;;;;;;5095035;28;20543;-79
2023/06/11 04:09:09;;;;;;;3.53;2.78;;;25.50;45.10;;;;;;5079016;28;20032;-79
2023/06/11 04:11:35;;;;;;;4.25;3.10;;;25.40;45.10;;;;;;5078204;28;20373;-78
2023/06/11 04:14:01;;;;;;;4.38;3.55;;;25.40;45.10;;;;;;5077813;28;20028;-76
2023/06/11 04:16:27;;;;;;;4.03;3.15;;;25.40;45.80;;;;;;5061857;28;20024;-77
2023/06/11 04:18:52;;;;;;;4.95;3.38;;;25.40;45.20;;;;;;5095504;28;20109;-78
2023/06/11 04:21:18;;;;;;;3.92;3.05;;;25.40;45.20;;;;;;5095225;28;20040;-80
2023/06/11 04:23:44;;;;;;;3.83;3.28;;;25.30;45.20;;;;;;5094898;28;20088;-78
2023/06/11 04:26:10;;;;;;;3.90;3.22;;;25.30;45.20;;;;;;5061413;28;20028;-80
2023/06/11 04:28:43;;;;;;;3.83;3.20;;;25.30;45.30;;;;;;5078559;28;20377;-79
2023/06/11 04:31:11;;;;;;;4.20;3.17;;;25.30;45.30;;;;;;5045656;28;20029;-78
2023/06/11 04:33:38;;;;;;;4.57;3.28;;;25.20;45.30;;;;;;5061557;28;20137;-78
2023/06/11 04:36:07;;;;;;;4.00;3.30;;;25.20;45.30;;;;;;5077962;28;20032;-79
2023/06/11 04:38:36;;;;;;;3.45;3.00;;;25.20;45.50;;;;;;5078090;28;20047;-77
2023/06/11 04:41:05;;;;;;;4.32;3.28;;;25.10;45.40;;;;;;5061682;28;20028;-77
2023/06/11 04:43:33;;;;;;;3.90;3.13;;;25.20;45.50;;;;;;5061804;28;20055;-79
2023/06/11 04:46:00;;;;;;;4.10;3.20;;;25.10;45.40;;;;;;5077552;28;20080;-80
2023/06/11 04:48:34;;;;;;;3.83;3.22;;;25.10;45.60;;;;;;5077842;28;20044;-78
2023/06/11 04:51:01;;;;;;;4.15;3.10;;;25.10;45.60;;;;;;5094677;28;20077;-77
2023/06/11 04:53:31;;;;;;;4.18;3.28;;;25.10;45.60;;;;;;5077417;28;20115;-76
2023/06/11 04:55:58;;;;;;;3.95;3.10;;;25.10;45.70;;;;;;5095135;28;20024;-79
2023/06/11 04:58:27;;;;;;;4.38;3.20;;;25.10;45.70;;;;;;5096893;28;20089;-79
2023/06/11 05:00:57;;;;;;;4.07;3.08;;;25.10;45.70;;;;;;5060422;28;20148;-77
2023/06/11 05:03:24;;;;;;;3.85;3.20;;;25.00;45.70;;;;;;5077869;28;20067;-78
2023/06/11 05:05:51;;;;;;;4.45;3.45;;;25.00;45.80;;;;;;5093875;28;20028;-77
2023/06/11 05:08:24;;;;;;;3.92;3.10;;;25.00;45.80;;;;;;5077629;28;20032;-77
2023/06/11 05:10:52;;;;;;;4.25;3.30;;;25.00;45.80;;;;;;5094131;28;20040;-80
2023/06/11 05:13:24;;;;;;;3.83;3.15;;;25.00;45.80;;;;;;5060690;28;20051;-78
2023/06/11 05:15:54;;;;;;;4.23;3.20;;;24.90;45.80;;;;;;5094435;28;20039;-77
2023/06/11 05:18:20;;;;;;;4.22;3.15;;;24.90;45.80;;;;;;5076919;28;20463;-78
2023/06/11 05:20:48;;;;;;;4.25;3.40;;;24.90;45.80;;;;;;5076910;28;20117;-78
2023/06/11 05:23:18;;;;;;;3.92;3.25;;;24.90;45.80;;;;;;5077683;28;20024;-78
2023/06/11 05:25:47;;;;;;;3.45;3.05;;;24.90;45.90;;;;;;5076809;28;20127;-78
2023/06/11 05:28:16;;;;;;;4.13;3.17;;;24.90;45.90;;;;;;5061723;28;20032;-78
2023/06/11 05:30:46;;;;;;;5.05;3.08;;;24.90;45.90;;;;;;5078308;28;20066;-79
2023/06/11 05:33:17;;;;;;;4.00;3.00;;;24.80;45.90;;;;;;5077015;28;20101;-78
2023/06/11 05:35:44;;;;;;;4.05;3.25;;;24.80;45.90;;;;;;5077589;28;20043;-78
2023/06/11 05:38:10;;;;;;;3.60;3.00;;;24.80;45.90;;;;;;5093381;28;20024;-78
2023/06/11 05:40:37;;;;;;;3.92;3.05;;;24.80;46.00;;;;;;5060535;28;20117;-78
2023/06/11 05:43:06;;;;;;;3.58;2.95;;;24.80;46.00;;;;;;5093075;28;20055;-79
2023/06/11 05:45:35;;;;;;;4.15;3.55;;;24.80;46.10;;;;;;5080566;28;20028;-78
2023/06/11 05:48:03;;;;;;;4.28;3.38;;;24.80;46.20;;;;;;5064428;28;20043;-78
2023/06/11 05:50:31;;;;;;;4.10;2.70;;;24.80;46.20;;;;;;5065951;28;20034;-77
2023/06/11 05:52:57;;;;;;;5.00;3.20;;;24.80;46.30;;;;;;5076643;28;20024;-78
2023/06/11 05:55:23;;;;;;;3.60;2.85;;;24.80;46.30;;;;;;5077169;28;20044;-78
2023/06/11 05:57:49;;;;;;;3.58;3.00;;;24.70;46.30;;;;;;5075975;28;20043;-78
2023/06/11 06:00:16;;;;;;;4.22;3.33;;;24.80;46.40;;;;;;5093047;28;20123;-78
2023/06/11 06:02:45;;;;;;;4.47;3.50;;;24.80;46.40;;;;;;5076279;28;20075;-77
2023/06/11 06:05:17;;;;;;;5.00;3.30;;;24.70;46.30;;;;;;5092280;28;20111;-79
2023/06/11 06:07:44;;;;;;;4.05;3.30;;;24.80;46.40;;;;;;5076409;28;20089;-78
2023/06/11 06:10:10;;;;;;;4.05;3.25;;;24.80;47.10;;;;;;5042917;28;20029;-77
2023/06/11 06:12:36;;;;;;;3.92;3.05;;;24.70;46.50;;;;;;5075639;28;20043;-79
2023/06/11 06:15:03;;;;;;;4.80;3.42;;;24.80;46.60;;;;;;5076781;28;20035;-79
2023/06/11 06:17:30;;;;;;;5.03;3.63;;;24.80;46.60;;;;;;5092801;28;20477;-79
2023/06/11 06:19:56;;;;;;;3.45;3.05;;;24.80;46.60;;;;;;5076582;28;20035;-78
2023/06/11 06:22:22;;;;;;;3.60;2.90;;;24.70;46.60;;;;;;5059109;28;20096;-77
2023/06/11 06:24:48;;;;;;;3.78;2.95;;;24.70;46.60;;;;;;5092456;28;20130;-77
2023/06/11 06:27:13;;;;;;;3.70;3.17;;;24.80;46.70;;;;;;5075765;28;20121;-77
2023/06/11 06:29:40;;;;;;;3.95;3.05;;;24.80;46.70;;;;;;5076668;28;20032;-77
2023/06/11 06:32:08;;;;;;;3.88;3.20;;;24.80;46.80;;;;;;5059286;28;20038;-78
2023/06/11 06:34:35;;;;;;;4.43;3.60;;;24.70;46.70;;;;;;5042791;28;20445;-78
2023/06/11 06:37:01;;;;;;;4.20;3.45;;;24.80;46.90;;;;;;5076043;28;20360;-78
2023/06/11 06:39:28;;;;;;;4.00;3.38;;;24.70;46.90;;;;;;5092348;28;20024;-78
2023/06/11 06:41:55;;;;;;;4.97;3.13;;;24.80;46.90;;;;;;5075827;28;20380;-78
2023/06/11 06:44:32;;;;;;;4.28;3.42;;;24.80;46.90;;;;;;5076784;28;20091;-77
2023/06/11 06:46:58;;;;;;;3.95;2.95;;;24.80;47.00;;;;;;5042605;28;20056;-76
2023/06/11 06:49:24;;;;;;;4.55;3.40;;;24.80;47.00;;;;;;5059239;28;20423;-77
2023/06/11 06:51:50;;;;;;;3.78;2.90;;;24.80;47.00;;;;;;5058655;28;20055;-78
2023/06/11 06:54:16;;;;;;;4.07;3.42;;;24.80;47.00;;;;;;5076773;28;20059;-78
2023/06/11 06:56:43;;;;;;;4.13;3.40;;;24.80;47.10;;;;;;5093688;28;20056;-78
2023/06/11 06:59:08;;;;;;;4.07;3.17;;;24.80;47.10;;;;;;5059612;28;20477;-80
2023/06/11 07:01:36;;;;;;;4.03;3.13;;;24.80;47.10;;;;;;5076552;28;20474;-79
2023/06/11 07:04:03;;;;;;;3.72;3.20;;;24.80;47.10;;;;;;5075788;28;20040;-79
2023/06/11 07:06:29;;;;;;;4.35;3.47;;;24.80;47.20;;;;;;5093089;28;20028;-78
2023/06/11 07:08:55;;;;;;;3.83;3.05;;;24.80;47.10;;;;;;5092249;28;20028;-76
2023/06/11 07:11:22;;;;;;;4.78;3.28;;;24.80;47.20;;;;;;5059276;28;20052;-75
2023/06/11 07:13:48;;;;;;;4.32;3.20;;;24.90;47.20;;;;;;5091953;28;20578;-74
2023/06/11 07:16:14;;;;;;;4.63;3.50;;;24.90;47.20;;;;;;5077271;28;20118;-74
2023/06/11 07:18:46;;;;;;;4.65;3.50;;;24.90;47.10;;;;;;5095971;28;20024;-74
2023/06/11 07:21:14;;;;;;;3.63;3.10;;;24.90;47.10;;;;;;5079014;28;20136;-75
2023/06/11 07:23:40;;;;;;;3.95;3.22;;;25.00;47.10;;;;;;5095856;28;20033;-77
2023/06/11 07:26:07;;;;;;;4.53;3.40;;;25.00;47.10;;;;;;5095909;28;20036;-76
2023/06/11 07:28:34;;;;;;;3.78;3.03;;;25.00;47.10;;;;;;5062318;28;20028;-76
2023/06/11 07:31:01;;;;;;;4.00;3.03;;;25.10;47.10;;;;;;5078879;28;20063;-76
2023/06/11 07:33:28;;;;;;;4.43;3.33;;;25.10;47.00;;;;;;5063302;28;20036;-75
2023/06/11 07:35:56;;;;;;;3.95;3.10;;;25.10;47.00;;;;;;5080183;28;20032;-77
2023/06/11 07:38:23;;;;;;;4.63;3.70;;;25.10;46.90;;;;;;5097201;28;20036;-75
2023/06/11 07:40:49;;;;;;;4.50;3.35;;;25.20;46.90;;;;;;5079385;28;20135;-79
2023/06/11 07:43:14;;;;;;;3.83;3.30;;;25.30;46.90;;;;;;5061727;28;20031;-73
2023/06/11 07:45:40;;;;;;;3.80;3.15;;;25.40;46.90;;;;;;5095750;28;20035;-75
2023/06/11 07:48:07;;;;;;;3.67;3.20;;;25.40;46.90;;;;;;5061847;28;20067;-72
2023/06/11 07:50:33;;;;;;;3.90;3.17;;;25.40;46.80;;;;;;5078756;28;20472;-75
2023/06/11 07:52:59;;;;;;;4.60;3.22;;;25.50;46.90;;;;;;5096600;28;20047;-74
2023/06/11 07:55:27;;;;;;;4.97;2.92;;;25.50;46.70;;;;;;5095094;28;20032;-76
2023/06/11 07:57:52;;;;;;;3.58;2.90;;;25.60;46.60;;;;;;5096133;28;20039;-78
2023/06/11 08:00:18;;;;;;;4.53;3.50;;;25.70;46.60;;;;;;5095005;28;20036;-76
2023/06/11 08:02:44;;;;;;;4.75;3.40;;;25.70;47.20;;;;;;5094373;28;20134;-75
2023/06/11 08:05:11;;;;;;;3.65;3.05;;;25.80;46.50;;;;;;5096309;28;20124;-75
2023/06/11 08:07:38;;;;;;;4.80;3.45;;;25.90;46.50;;;;;;5095114;28;20481;-75
2023/06/11 08:10:05;;;;;;;4.82;3.50;;;25.90;46.40;;;;;;5078069;28;20036;-76
2023/06/11 08:12:31;;;;;;;3.97;3.42;;;26.00;46.50;;;;;;5078014;28;20378;-76
2023/06/11 08:14:57;;;;;;;4.38;3.50;;;26.10;46.50;;;;;;5094671;28;20089;-75
2023/06/11 08:17:22;;;;;;;4.22;3.05;;;26.20;46.50;;;;;;5095834;28;20111;-74
2023/06/11 08:19:48;;;;;;;4.22;3.25;;;26.20;46.50;;;;;;5095159;28;20431;-74
2023/06/11 08:22:14;;;;;;;4.18;3.40;;;26.30;46.50;;;;;;5061314;28;20067;-75
2023/06/11 08:24:39;;;;;;;3.70;3.10;;;26.40;46.50;;;;;;5061510;28;20055;-76
2023/06/11 08:27:08;;;;;;;3.88;3.00;;;26.50;46.50;;;;;;5093491;28;20027;-75
2023/06/11 08:29:34;;;;;;;4.47;2.92;;;26.60;46.60;;;;;;5062117;28;20044;-76
2023/06/11 08:32:00;;;;;;;4.30;3.22;;;26.60;46.50;;;;;;5094591;28;20065;-75
2023/06/11 08:34:25;;;;;;;4.22;3.33;;;26.70;46.50;;;;;;5077718;28;20028;-73
2023/06/11 08:36:52;;;;;;;4.10;3.08;;;26.80;46.60;;;;;;5094859;28;20081;-80
2023/06/11 08:39:17;;;;;;;4.90;3.30;;;26.90;46.60;;;;;;5097555;28;20024;-77
2023/06/11 08:41:43;;;;;;;3.55;3.03;;;27.00;46.60;;;;;;5095313;28;20059;-76
2023/06/11 08:44:09;;;;;;;4.22;3.40;;;27.10;46.70;;;;;;5096067;28;20056;-75
2023/06/11 08:46:35;;;;;;;4.05;3.10;;;27.10;46.60;;;;;;5077996;28;20096;-75
2023/06/11 08:49:06;;;;;;;4.50;3.33;;;27.20;46.70;;;;;;5095557;28;20137;-76
2023/06/11 08:51:37;;;;;;;4.25;3.22;;;27.30;46.70;;;;;;5093894;28;20032;-76
2023/06/11 08:54:06;;;;;;;3.33;2.80;;;27.40;46.70;;;;;;5095297;28;20051;-76
2023/06/11 08:56:32;;;;;;;4.20;3.13;;;27.50;46.70;;;;;;5095418;28;20034;-75
2023/06/11 08:59:00;;;;;;;3.80;2.95;;;27.60;46.80;;;;;;5094016;28;20077;-75
2023/06/11 09:01:26;;;;;;;3.58;3.00;;;27.70;46.80;;;;;;5093613;28;20481;-74
2023/06/11 09:03:52;;;;;;;3.88;3.13;;;27.80;46.70;;;;;;5094851;28;20076;-75
2023/06/11 09:06:19;;;;;;;3.97;3.28;;;27.90;46.70;;;;;;5093588;28;20035;-76
2023/06/11 09:09:03;;;;;;;3.90;3.03;;;27.90;46.70;;;;;;5093794;28;20114;-75
2023/06/11 09:11:36;;;;;;;3.38;2.90;;;28.00;46.70;;;;;;5094877;28;20069;-76
2023/06/11 09:14:02;;;;;;;4.80;3.13;;;28.20;46.70;;;;;;5077302;28;20021;-75
2023/06/11 09:16:28;;;;;;;3.85;3.30;;;28.20;46.60;;;;;;5095038;28;20028;-75
2023/06/11 09:18:56;;;;;;;4.18;3.22;;;28.30;46.50;;;;;;5094755;28;20023;-75
2023/06/11 09:21:25;;;;;;;4.28;3.22;;;28.40;46.50;;;;;;5093919;28;20036;-76
2023/06/11 09:23:51;;;;;;;3.38;2.88;;;28.50;46.50;;;;;;5093911;28;20042;-75
2023/06/11 09:26:18;;;;;;;4.03;3.33;;;28.50;46.40;;;;;;5093269;28;20509;-76
2023/06/11 09:28:46;;;;;;;4.38;3.22;;;28.60;46.40;;;;;;5094484;28;20036;-75
2023/06/11 09:31:12;;;;;;;3.75;3.13;;;28.70;46.40;;;;;;5093618;28;20032;-78
2023/06/11 09:33:38;;;;;;;3.75;3.00;;;28.70;46.30;;;;;;5094210;28;20035;-76
2023/06/11 09:36:04;;;;;;;4.05;3.22;;;28.80;46.30;;;;;;5093338;28;20063;-77
2023/06/11 09:38:34;;;;;;;3.53;3.00;;;29.00;47.00;;;;;;5094898;28;20040;-75
2023/06/11 09:41:00;;;;;;;4.38;3.25;;;29.10;46.30;;;;;;5094735;28;20333;-75
2023/06/11 09:43:26;;;;;;;4.10;3.10;;;29.10;46.20;;;;;;5059738;28;20121;-76
2023/06/11 09:45:54;;;;;;;3.47;2.85;;;29.20;46.30;;;;;;5093114;28;20453;-75
2023/06/11 09:48:24;;;;;;;4.15;3.13;;;29.30;46.20;;;;;;5076028;28;20048;-75
2023/06/11 09:50:52;;;;;;;4.30;3.10;;;29.40;46.20;;;;;;5093260;28;20071;-75
2023/06/11 09:53:19;;;;;;;3.40;2.85;;;29.40;46.10;;;;;;5094505;28;20036;-74
2023/06/11 09:55:50;;;;;;;4.60;3.08;;;29.50;46.00;;;;;;5093928;28;20024;-74
2023/06/11 09:58:23;;;;;;;3.38;2.90;;;29.60;46.10;;;;;;5094449;28;20077;-74
2023/06/11 10:00:50;;;;;;;4.32;2.88;;;29.70;46.00;;;;;;5093184;28;20028;-74
2023/06/11 10:03:18;;;;;;;3.80;3.25;;;29.80;46.00;;;;;;5094172;28;20039;-73
2023/06/11 10:05:44;;;;;;;3.70;3.13;;;29.90;45.90;;;;;;5094094;28;20056;-74
2023/06/11 10:08:27;;;;;;;3.80;2.95;;;29.90;45.80;;;;;;5059425;28;20085;-73
2023/06/11 10:10:58;;;;;;;4.25;3.10;;;30.00;45.90;;;;;;5094337;28;20032;-75
2023/06/11 10:13:32;;;;;;;4.75;2.90;;;30.10;45.80;;;;;;5094311;28;20445;-74
2023/06/11 10:16:02;;;;;;;3.97;3.28;;;30.20;45.80;;;;;;5093462;28;20036;-75
2023/06/11 10:18:30;;;;;;;2.83;2.58;;;30.30;45.70;;;;;;5094012;28;20448;-73
2023/06/11 10:21:00;;;;;;;4.00;2.92;;;30.40;45.70;;;;;;5093533;28;20051;-74
2023/06/11 10:23:40;;;;;;;4.30;2.95;;;30.50;45.70;;;;;;5077272;28;20036;-74
2023/06/11 10:26:07;;;;;;;3.80;3.10;;;30.60;45.70;;;;;;5093806;28;20027;-73
2023/06/11 10:28:37;;;;;;;4.00;3.10;;;30.60;45.50;;;;;;5093387;28;20035;-76
2023/06/11 10:31:04;;;;;;;3.55;3.10;;;30.70;45.50;;;;;;5092049;28;20175;-76
2023/06/11 10:33:45;;;;;;;3.70;3.13;;;30.80;45.30;;;;;;5092355;28;20036;-77
2023/06/11 10:36:24;;;;;;;5.00;3.40;;;30.80;45.00;;;;;;5092167;28;20035;-76
2023/06/11 10:38:52;;;;;;;5.03;3.13;;;30.90;44.80;;;;;;5093271;28;20028;-80
2023/06/11 10:41:28;;;;;;;3.85;3.15;;;30.90;44.70;;;;;;5092069;28;20418;-75
2023/06/11 10:43:57;;;;;;;3.45;2.90;;;30.90;44.30;;;;;;5074986;28;20040;-77
2023/06/11 10:46:23;;;;;;;4.15;3.10;;;31.00;44.00;;;;;;5075534;28;20337;-77
2023/06/11 10:48:53;;;;;;;3.70;3.05;;;31.10;43.90;;;;;;5093654;28;20039;-78
2023/06/11 10:51:19;;;;;;;3.58;2.92;;;31.10;43.80;;;;;;5091684;28;20104;-80
2023/06/11 10:53:54;;;;;;;3.60;2.90;;;31.20;43.90;;;;;;5092863;28;20039;-77
2023/06/11 10:56:21;;;;;;;4.07;2.90;;;31.30;43.80;;;;;;5092629;28;20119;-76
2023/06/11 10:58:51;;;;;;;3.45;3.00;;;31.30;43.60;;;;;;5075284;28;20123;-76
2023/06/11 11:01:20;;;;;;;4.15;3.03;;;31.30;43.40;;;;;;5093837;28;20127;-75
2023/06/11 11:03:48;;;;;;;3.42;2.63;;;31.40;43.30;;;;;;5091807;28;20032;-77
2023/06/11 11:06:25;;;;;;;3.45;2.53;;;31.40;43.10;;;;;;5093832;28;20024;-76
2023/06/11 11:08:52;;;;;;;3.47;2.70;;;31.50;43.00;;;;;;5092093;28;20035;-76
2023/06/11 11:11:18;;;;;;;3.00;2.50;;;31.50;43.00;;;;;;5075294;28;20119;-77
2023/06/11 11:13:45;;;;;;;3.67;2.70;;;31.50;42.80;;;;;;5092698;28;20060;-78
2023/06/11 11:16:11;;;;;;;3.20;2.50;;;31.50;42.70;;;;;;5095745;28;20035;-77
2023/06/11 11:18:37;;;;;;;4.10;2.60;;;31.50;43.50;;;;;;5093779;28;20028;-77
2023/06/11 11:21:03;;;;;;;3.45;2.80;;;31.50;42.70;;;;;;5075126;28;20044;-75
2023/06/11 11:23:31;;;;;;;3.97;2.75;;;31.60;42.60;;;;;;5074973;28;20036;-75
2023/06/11 11:25:57;;;;;;;2.92;2.63;;;31.60;42.40;;;;;;5091619;28;20089;-75
2023/06/11 11:28:23;;;;;;;3.70;2.83;;;31.60;42.30;;;;;;5091654;28;20032;-76
2023/06/11 11:30:53;;;;;;;3.28;2.60;;;31.60;42.30;;;;;;5074878;28;20032;-77
2023/06/11 11:33:19;;;;;;;4.13;2.75;;;31.70;42.40;;;;;;5092419;28;20060;-75
2023/06/11 11:35:56;;;;;;;3.70;2.75;;;31.70;42.20;;;;;;5075346;28;20043;-73
2023/06/11 11:38:22;;;;;;;4.40;2.70;;;31.70;42.00;;;;;;5092356;28;20056;-78
2023/06/11 11:40:58;;;;;;;3.58;2.95;;;31.70;42.00;;;;;;5091719;28;20037;-79
2023/06/11 11:43:24;;;;;;;3.75;2.83;;;31.70;41.80;;;;;;5092655;28;20109;-76
2023/06/11 11:45:50;;;;;;;3.60;2.58;;;31.70;41.80;;;;;;5074618;28;20059;-81
2023/06/11 11:48:16;;;;;;;3.47;2.90;;;31.70;41.60;;;;;;5058239;28;20024;-75
2023/06/11 11:50:44;;;;;;;3.45;2.55;;;31.70;41.30;;;;;;5092585;28;20034;-79
2023/06/11 11:53:14;;;;;;;4.05;2.97;;;31.70;41.30;;;;;;5091115;28;20035;-75
2023/06/11 11:55:45;;;;;;;3.30;2.97;;;31.70;41.30;;;;;;5091671;28;20342;-77
2023/06/11 11:58:15;;;;;;;3.53;2.67;;;31.70;41.10;;;;;;5092920;28;20043;-77
2023/06/11 12:00:50;;;;;;;3.33;2.70;;;31.70;41.10;;;;;;5074440;28;20380;-76
2023/06/11 12:03:20;;;;;;;4.20;2.58;;;31.70;41.00;;;;;;5094798;28;20024;-78
2023/06/11 12:06:00;;;;;;;3.40;2.67;;;31.70;40.80;;;;;;5078413;28;20051;-79
2023/06/11 12:08:31;;;;;;;4.05;2.90;;;31.70;41.00;;;;;;5095353;28;20032;-77
2023/06/11 12:10:57;;;;;;;3.63;2.60;;;31.70;40.80;;;;;;5094853;28;20039;-77
2023/06/11 12:13:23;;;;;;;3.20;2.50;;;31.70;40.90;;;;;;5078316;28;20352;-77
2023/06/11 12:15:49;;;;;;;3.58;2.65;;;31.70;40.90;;;;;;5094386;28;20074;-74
2023/06/11 12:18:15;;;;;;;3.03;2.35;;;31.70;40.60;;;;;;5095960;28;20052;-75
2023/06/11 12:20:41;;;;;;;3.20;2.45;;;31.70;40.60;;;;;;5078415;28;20058;-74
2023/06/11 12:23:07;;;;;;;3.50;2.55;;;31.70;40.40;;;;;;5094456;28;20028;-75
2023/06/11 12:25:34;;;;;;;3.28;2.83;;;31.70;40.30;;;;;;5078007;28;20036;-76
2023/06/11 12:28:00;;;;;;;3.53;2.78;;;31.70;40.20;;;;;;5095428;28;20034;-74
2023/06/11 12:30:28;;;;;;;3.17;2.72;;;31.70;40.20;;;;;;5095898;28;20086;-76
2023/06/11 12:32:54;;;;;;;4.85;2.85;;;31.70;40.10;;;;;;5095539;28;20035;-77
2023/06/11 12:35:20;;;;;;;3.40;2.55;;;31.70;40.10;;;;;;5095322;28;20036;-76
2023/06/11 12:37:46;;;;;;;5.18;2.60;;;31.70;39.90;;;;;;5095575;28;20031;-76
2023/06/11 12:40:12;;;;;;;3.28;2.70;;;31.70;39.70;;;;;;5094452;28;20020;-76
2023/06/11 12:42:38;;;;;;;3.03;2.50;;;31.70;39.60;;;;;;5095262;28;20032;-78
2023/06/11 12:45:05;;;;;;;3.08;2.58;;;31.70;39.50;;;;;;5093649;28;20376;-79
2023/06/11 12:47:31;;;;;;;4.28;2.58;;;31.70;39.30;;;;;;5094100;28;20036;-75
2023/06/11 12:49:57;;;;;;;2.75;2.47;;;31.70;39.10;;;;;;5093615;28;20105;-75